sensor_id;sensor_type;location;lat;lon;timestamp;temperature;humidity
35603;DHT22;21725;50.836;4.368;2022-11-04T00:02:00;13.10;99.90
35603;DHT22;21725;50.836;4.368;2022-11-04T00:04:26;13.10;99.90
35603;DHT22;21725;50.836;4.368;2022-11-04T00:06:53;13.20;99.90
35603;DHT22;21725;50.836;4.368;2022-11-04T00:09:22;12.80;99.90
35603;DHT22;21725;50.836;4.368;2022-11-04T00:11:49;12.90;99.90
35603;DHT22;21725;50.836;4.368;2022-11-04T00:14:34;12.80;99.90
35603;DHT22;21725;50.836;4.368;2022-11-04T00:17:00;12.80;99.90
35603;DHT22;21725;50.836;4.368;2022-11-04T00:19:49;12.80;99.90
35603;DHT22;21725;50.836;4.368;2022-11-04T00:22:34;12.90;99.90
35603;DHT22;21725;50.836;4.368;2022-11-04T00:25:19;13.20;99.90
35603;DHT22;21725;50.836;4.368;2022-11-04T00:28:14;13.00;99.90
35603;DHT22;21725;50.836;4.368;2022-11-04T00:31:00;13.00;99.90
35603;DHT22;21725;50.836;4.368;2022-11-04T00:33:47;13.00;99.90
35603;DHT22;21725;50.836;4.368;2022-11-04T00:36:13;13.00;99.90
35603;DHT22;21725;50.836;4.368;2022-11-04T00:38:39;13.20;99.90
35603;DHT22;21725;50.836;4.368;2022-11-04T00:41:07;13.10;99.90
35603;DHT22;21725;50.836;4.368;2022-11-04T00:44:00;13.00;99.90
35603;DHT22;21725;50.836;4.368;2022-11-04T00:46:28;13.10;99.90
35603;DHT22;21725;50.836;4.368;2022-11-04T00:48:54;13.20;99.90
35603;DHT22;21725;50.836;4.368;2022-11-04T00:51:22;13.30;99.90
35603;DHT22;21725;50.836;4.368;2022-11-04T00:53:49;13.40;99.90
35603;DHT22;21725;50.836;4.368;2022-11-04T00:56:20;13.40;99.90
35603;DHT22;21725;50.836;4.368;2022-11-04T00:58:46;13.40;99.90
35603;DHT22;21725;50.836;4.368;2022-11-04T01:01:15;13.50;99.90
35603;DHT22;21725;50.836;4.368;2022-11-04T01:03:42;13.40;99.90
35603;DHT22;21725;50.836;4.368;2022-11-04T01:06:11;13.30;99.90
35603;DHT22;21725;50.836;4.368;2022-11-04T01:08:37;13.20;99.90
35603;DHT22;21725;50.836;4.368;2022-11-04T01:11:07;13.20;99.90
35603;DHT22;21725;50.836;4.368;2022-11-04T01:13:33;13.20;99.90
35603;DHT22;21725;50.836;4.368;2022-11-04T01:16:00;13.40;99.90
35603;DHT22;21725;50.836;4.368;2022-11-04T01:18:27;13.10;99.90
35603;DHT22;21725;50.836;4.368;2022-11-04T01:20:53;13.40;99.90
35603;DHT22;21725;50.836;4.368;2022-11-04T01:23:19;13.40;99.90
35603;DHT22;21725;50.836;4.368;2022-11-04T01:25:45;13.30;99.90
35603;DHT22;21725;50.836;4.368;2022-11-04T01:28:11;13.30;99.90
35603;DHT22;21725;50.836;4.368;2022-11-04T01:30:37;13.20;99.90
35603;DHT22;21725;50.836;4.368;2022-11-04T01:33:03;13.20;99.90
35603;DHT22;21725;50.836;4.368;2022-11-04T01:35:30;13.10;99.90
35603;DHT22;21725;50.836;4.368;2022-11-04T01:37:57;12.30;99.90
35603;DHT22;21725;50.836;4.368;2022-11-04T01:40:25;13.00;99.90
35603;DHT22;21725;50.836;4.368;2022-11-04T01:42:51;13.00;99.90
35603;DHT22;21725;50.836;4.368;2022-11-04T01:45:20;13.00;99.90
35603;DHT22;21725;50.836;4.368;2022-11-04T01:47:53;12.90;99.90
35603;DHT22;21725;50.836;4.368;2022-11-04T01:50:27;12.80;99.90
35603;DHT22;21725;50.836;4.368;2022-11-04T01:52:55;12.60;99.90
35603;DHT22;21725;50.836;4.368;2022-11-04T01:55:28;12.70;99.90
35603;DHT22;21725;50.836;4.368;2022-11-04T01:57:58;12.60;99.90
35603;DHT22;21725;50.836;4.368;2022-11-04T02:00:24;12.60;99.90
35603;DHT22;21725;50.836;4.368;2022-11-04T02:03:03;12.60;99.90
35603;DHT22;21725;50.836;4.368;2022-11-04T02:05:30;12.60;99.90
35603;DHT22;21725;50.836;4.368;2022-11-04T02:07:57;12.70;99.90
35603;DHT22;21725;50.836;4.368;2022-11-04T02:10:27;12.60;99.90
35603;DHT22;21725;50.836;4.368;2022-11-04T02:12:54;12.50;99.90
35603;DHT22;21725;50.836;4.368;2022-11-04T02:15:43;12.50;99.90
35603;DHT22;21725;50.836;4.368;2022-11-04T02:24:01;12.40;99.90
35603;DHT22;21725;50.836;4.368;2022-11-04T02:26:42;12.40;99.90
35603;DHT22;21725;50.836;4.368;2022-11-04T02:29:51;12.40;99.90
35603;DHT22;21725;50.836;4.368;2022-11-04T02:32:17;12.40;99.90
35603;DHT22;21725;50.836;4.368;2022-11-04T02:34:55;12.50;99.90
35603;DHT22;21725;50.836;4.368;2022-11-04T02:43:21;12.60;99.90
35603;DHT22;21725;50.836;4.368;2022-11-04T02:46:00;12.70;99.90
35603;DHT22;21725;50.836;4.368;2022-11-04T02:48:41;12.70;99.90
35603;DHT22;21725;50.836;4.368;2022-11-04T02:51:18;12.00;99.90
35603;DHT22;21725;50.836;4.368;2022-11-04T02:54:11;13.00;99.90
35603;DHT22;21725;50.836;4.368;2022-11-04T02:56:47;13.00;99.90
35603;DHT22;21725;50.836;4.368;2022-11-04T02:59:33;13.00;99.90
35603;DHT22;21725;50.836;4.368;2022-11-04T03:02:06;12.90;99.90
35603;DHT22;21725;50.836;4.368;2022-11-04T03:04:37;12.90;99.90
35603;DHT22;21725;50.836;4.368;2022-11-04T03:07:08;13.00;99.90
35603;DHT22;21725;50.836;4.368;2022-11-04T03:09:38;12.90;99.90
35603;DHT22;21725;50.836;4.368;2022-11-04T03:12:14;13.00;99.90
35603;DHT22;21725;50.836;4.368;2022-11-04T03:14:48;13.40;99.90
35603;DHT22;21725;50.836;4.368;2022-11-04T03:17:31;13.10;99.90
35603;DHT22;21725;50.836;4.368;2022-11-04T03:20:09;13.00;99.90
35603;DHT22;21725;50.836;4.368;2022-11-04T03:22:39;12.90;99.90
35603;DHT22;21725;50.836;4.368;2022-11-04T03:25:06;13.00;99.90
35603;DHT22;21725;50.836;4.368;2022-11-04T03:27:57;13.00;99.90
35603;DHT22;21725;50.836;4.368;2022-11-04T03:30:25;13.10;99.90
35603;DHT22;21725;50.836;4.368;2022-11-04T03:33:17;13.20;99.90
35603;DHT22;21725;50.836;4.368;2022-11-04T03:35:43;13.30;99.90
35603;DHT22;21725;50.836;4.368;2022-11-04T03:38:09;13.40;99.90
35603;DHT22;21725;50.836;4.368;2022-11-04T03:40:38;13.40;99.90
35603;DHT22;21725;50.836;4.368;2022-11-04T03:43:12;13.40;99.90
35603;DHT22;21725;50.836;4.368;2022-11-04T03:45:40;13.40;99.90
35603;DHT22;21725;50.836;4.368;2022-11-04T03:48:12;13.60;99.90
35603;DHT22;21725;50.836;4.368;2022-11-04T03:50:43;13.80;99.90
35603;DHT22;21725;50.836;4.368;2022-11-04T03:53:15;13.70;99.90
35603;DHT22;21725;50.836;4.368;2022-11-04T04:00:59;13.60;99.90
35603;DHT22;21725;50.836;4.368;2022-11-04T04:03:49;13.40;99.90
35603;DHT22;21725;50.836;4.368;2022-11-04T04:06:19;13.60;99.90
35603;DHT22;21725;50.836;4.368;2022-11-04T04:08:52;13.70;99.90
35603;DHT22;21725;50.836;4.368;2022-11-04T04:11:45;13.80;99.90
35603;DHT22;21725;50.836;4.368;2022-11-04T04:14:37;13.70;99.90
35603;DHT22;21725;50.836;4.368;2022-11-04T04:20:14;13.70;99.90
35603;DHT22;21725;50.836;4.368;2022-11-04T04:22:47;13.70;99.90
35603;DHT22;21725;50.836;4.368;2022-11-04T04:25:17;13.60;99.90
35603;DHT22;21725;50.836;4.368;2022-11-04T04:28:03;13.70;99.90
35603;DHT22;21725;50.836;4.368;2022-11-04T04:30:29;13.70;99.90
35603;DHT22;21725;50.836;4.368;2022-11-04T04:33:02;13.60;99.90
35603;DHT22;21725;50.836;4.368;2022-11-04T04:35:32;13.70;99.90
35603;DHT22;21725;50.836;4.368;2022-11-04T04:38:28;13.70;99.90
35603;DHT22;21725;50.836;4.368;2022-11-04T04:41:20;13.70;99.90
35603;DHT22;21725;50.836;4.368;2022-11-04T04:44:24;13.60;99.90
35603;DHT22;21725;50.836;4.368;2022-11-04T04:47:10;13.60;99.90
35603;DHT22;21725;50.836;4.368;2022-11-04T04:49:47;13.60;99.90
35603;DHT22;21725;50.836;4.368;2022-11-04T04:52:15;13.70;99.90
35603;DHT22;21725;50.836;4.368;2022-11-04T04:54:41;13.70;99.90
35603;DHT22;21725;50.836;4.368;2022-11-04T04:57:09;13.70;99.90
35603;DHT22;21725;50.836;4.368;2022-11-04T04:59:37;14.10;99.90
35603;DHT22;21725;50.836;4.368;2022-11-04T05:02:03;13.70;99.90
35603;DHT22;21725;50.836;4.368;2022-11-04T05:04:29;13.80;99.90
35603;DHT22;21725;50.836;4.368;2022-11-04T05:06:57;13.60;99.90
35603;DHT22;21725;50.836;4.368;2022-11-04T05:09:23;13.70;99.90
35603;DHT22;21725;50.836;4.368;2022-11-04T05:11:56;13.70;99.90
35603;DHT22;21725;50.836;4.368;2022-11-04T05:14:22;13.80;99.90
35603;DHT22;21725;50.836;4.368;2022-11-04T05:16:48;13.70;99.90
35603;DHT22;21725;50.836;4.368;2022-11-04T05:19:14;13.80;99.90
35603;DHT22;21725;50.836;4.368;2022-11-04T05:21:39;13.80;99.90
35603;DHT22;21725;50.836;4.368;2022-11-04T05:24:10;13.70;99.90
35603;DHT22;21725;50.836;4.368;2022-11-04T05:26:36;13.70;99.90
35603;DHT22;21725;50.836;4.368;2022-11-04T05:29:02;14.20;99.90
35603;DHT22;21725;50.836;4.368;2022-11-04T05:31:30;13.70;99.90
35603;DHT22;21725;50.836;4.368;2022-11-04T05:33:56;13.70;99.90
35603;DHT22;21725;50.836;4.368;2022-11-04T05:36:24;13.70;99.90
35603;DHT22;21725;50.836;4.368;2022-11-04T05:38:51;13.80;99.90
35603;DHT22;21725;50.836;4.368;2022-11-04T05:41:17;13.70;99.90
35603;DHT22;21725;50.836;4.368;2022-11-04T05:46:22;13.80;99.90
35603;DHT22;21725;50.836;4.368;2022-11-04T05:48:47;13.80;99.90
35603;DHT22;21725;50.836;4.368;2022-11-04T05:51:19;13.80;99.90
35603;DHT22;21725;50.836;4.368;2022-11-04T05:53:47;13.80;99.90
35603;DHT22;21725;50.836;4.368;2022-11-04T05:56:13;13.70;99.90
35603;DHT22;21725;50.836;4.368;2022-11-04T05:58:39;13.60;99.90
35603;DHT22;21725;50.836;4.368;2022-11-04T06:03:56;13.70;99.90
35603;DHT22;21725;50.836;4.368;2022-11-04T06:06:24;13.80;99.90
35603;DHT22;21725;50.836;4.368;2022-11-04T06:08:53;13.90;99.90
35603;DHT22;21725;50.836;4.368;2022-11-04T06:11:22;13.90;99.90
35603;DHT22;21725;50.836;4.368;2022-11-04T06:13:50;13.90;99.90
35603;DHT22;21725;50.836;4.368;2022-11-04T06:16:22;13.80;99.90
35603;DHT22;21725;50.836;4.368;2022-11-04T06:18:48;14.00;99.90
35603;DHT22;21725;50.836;4.368;2022-11-04T06:23:43;13.10;99.90
35603;DHT22;21725;50.836;4.368;2022-11-04T06:26:10;13.90;99.90
35603;DHT22;21725;50.836;4.368;2022-11-04T06:28:37;13.90;99.90
35603;DHT22;21725;50.836;4.368;2022-11-04T06:31:05;14.00;99.90
35603;DHT22;21725;50.836;4.368;2022-11-04T06:33:32;14.10;99.90
35603;DHT22;21725;50.836;4.368;2022-11-04T06:35:59;14.40;99.90
35603;DHT22;21725;50.836;4.368;2022-11-04T06:38:32;14.20;99.90
35603;DHT22;21725;50.836;4.368;2022-11-04T06:41:03;14.10;99.90
35603;DHT22;21725;50.836;4.368;2022-11-04T06:43:29;14.00;99.90
35603;DHT22;21725;50.836;4.368;2022-11-04T06:45:59;14.00;99.90
35603;DHT22;21725;50.836;4.368;2022-11-04T06:48:26;14.10;99.90
35603;DHT22;21725;50.836;4.368;2022-11-04T06:50:54;14.30;99.90
35603;DHT22;21725;50.836;4.368;2022-11-04T06:53:20;14.50;99.90
35603;DHT22;21725;50.836;4.368;2022-11-04T06:55:46;14.30;99.90
35603;DHT22;21725;50.836;4.368;2022-11-04T06:58:22;14.40;99.90
35603;DHT22;21725;50.836;4.368;2022-11-04T07:00:51;14.20;99.90
35603;DHT22;21725;50.836;4.368;2022-11-04T07:03:19;14.20;99.90
35603;DHT22;21725;50.836;4.368;2022-11-04T07:05:45;14.10;99.90
35603;DHT22;21725;50.836;4.368;2022-11-04T07:08:13;14.10;99.90
35603;DHT22;21725;50.836;4.368;2022-11-04T07:10:44;14.30;99.90
35603;DHT22;21725;50.836;4.368;2022-11-04T07:13:12;14.40;99.90
35603;DHT22;21725;50.836;4.368;2022-11-04T07:15:48;14.60;99.90
35603;DHT22;21725;50.836;4.368;2022-11-04T07:18:16;14.70;99.90
35603;DHT22;21725;50.836;4.368;2022-11-04T07:21:03;14.60;99.90
35603;DHT22;21725;50.836;4.368;2022-11-04T07:23:29;14.60;99.90
35603;DHT22;21725;50.836;4.368;2022-11-04T07:26:01;14.50;99.90
35603;DHT22;21725;50.836;4.368;2022-11-04T07:28:28;14.60;99.90
35603;DHT22;21725;50.836;4.368;2022-11-04T07:30:55;14.70;99.90
35603;DHT22;21725;50.836;4.368;2022-11-04T07:33:22;14.80;99.90
35603;DHT22;21725;50.836;4.368;2022-11-04T07:35:56;14.80;99.90
35603;DHT22;21725;50.836;4.368;2022-11-04T07:38:23;14.70;99.90
35603;DHT22;21725;50.836;4.368;2022-11-04T07:40:52;14.60;99.90
35603;DHT22;21725;50.836;4.368;2022-11-04T07:43:17;14.50;99.90
35603;DHT22;21725;50.836;4.368;2022-11-04T07:45:43;14.50;99.90
35603;DHT22;21725;50.836;4.368;2022-11-04T07:48:11;14.70;99.90
35603;DHT22;21725;50.836;4.368;2022-11-04T07:50:42;14.70;99.90
35603;DHT22;21725;50.836;4.368;2022-11-04T07:53:15;14.60;99.90
35603;DHT22;21725;50.836;4.368;2022-11-04T07:55:40;14.70;99.90
35603;DHT22;21725;50.836;4.368;2022-11-04T07:58:08;14.80;99.90
35603;DHT22;21725;50.836;4.368;2022-11-04T08:00:34;14.80;99.90
35603;DHT22;21725;50.836;4.368;2022-11-04T08:03:00;14.80;99.90
35603;DHT22;21725;50.836;4.368;2022-11-04T08:05:27;14.80;99.90
35603;DHT22;21725;50.836;4.368;2022-11-04T08:07:53;14.80;99.90
35603;DHT22;21725;50.836;4.368;2022-11-04T08:10:18;15.00;99.90
35603;DHT22;21725;50.836;4.368;2022-11-04T08:12:44;14.90;99.90
35603;DHT22;21725;50.836;4.368;2022-11-04T08:15:10;15.10;99.90
35603;DHT22;21725;50.836;4.368;2022-11-04T08:17:41;15.00;99.90
35603;DHT22;21725;50.836;4.368;2022-11-04T08:20:06;15.10;99.90
35603;DHT22;21725;50.836;4.368;2022-11-04T08:22:35;14.90;99.90
35603;DHT22;21725;50.836;4.368;2022-11-04T08:25:01;15.00;99.90
35603;DHT22;21725;50.836;4.368;2022-11-04T08:27:27;15.10;99.90
35603;DHT22;21725;50.836;4.368;2022-11-04T08:29:52;15.20;99.90
35603;DHT22;21725;50.836;4.368;2022-11-04T08:32:18;15.20;99.90
35603;DHT22;21725;50.836;4.368;2022-11-04T08:34:46;15.20;99.90
35603;DHT22;21725;50.836;4.368;2022-11-04T08:37:15;15.20;99.90
35603;DHT22;21725;50.836;4.368;2022-11-04T08:39:43;15.10;99.90
35603;DHT22;21725;50.836;4.368;2022-11-04T08:42:09;15.10;99.90
35603;DHT22;21725;50.836;4.368;2022-11-04T08:44:37;15.10;99.90
35603;DHT22;21725;50.836;4.368;2022-11-04T08:47:04;15.70;99.90
35603;DHT22;21725;50.836;4.368;2022-11-04T08:49:30;15.30;99.90
35603;DHT22;21725;50.836;4.368;2022-11-04T08:51:55;15.40;99.90
35603;DHT22;21725;50.836;4.368;2022-11-04T08:54:27;15.40;99.90
35603;DHT22;21725;50.836;4.368;2022-11-04T08:56:53;15.50;99.80
35603;DHT22;21725;50.836;4.368;2022-11-04T08:59:18;15.50;99.90
35603;DHT22;21725;50.836;4.368;2022-11-04T09:01:44;15.50;99.90
35603;DHT22;21725;50.836;4.368;2022-11-04T09:04:11;15.50;99.60
35603;DHT22;21725;50.836;4.368;2022-11-04T09:06:39;15.50;99.70
35603;DHT22;21725;50.836;4.368;2022-11-04T09:09:12;15.20;99.90
35603;DHT22;21725;50.836;4.368;2022-11-04T09:11:40;15.30;99.90
35603;DHT22;21725;50.836;4.368;2022-11-04T09:14:07;15.40;99.90
35603;DHT22;21725;50.836;4.368;2022-11-04T09:16:37;15.50;99.90
35603;DHT22;21725;50.836;4.368;2022-11-04T09:19:05;15.60;99.70
35603;DHT22;21725;50.836;4.368;2022-11-04T09:21:34;15.70;99.50
35603;DHT22;21725;50.836;4.368;2022-11-04T09:24:03;15.60;99.60
35603;DHT22;21725;50.836;4.368;2022-11-04T09:26:28;15.60;99.60
35603;DHT22;21725;50.836;4.368;2022-11-04T09:28:58;15.70;99.50
35603;DHT22;21725;50.836;4.368;2022-11-04T09:31:25;15.80;99.40
35603;DHT22;21725;50.836;4.368;2022-11-04T09:33:54;15.70;99.70
35603;DHT22;21725;50.836;4.368;2022-11-04T09:36:23;15.80;99.80
35603;DHT22;21725;50.836;4.368;2022-11-04T09:38:51;15.90;99.50
35603;DHT22;21725;50.836;4.368;2022-11-04T09:46:31;15.90;99.10
35603;DHT22;21725;50.836;4.368;2022-11-04T09:49:00;15.80;99.10
35603;DHT22;21725;50.836;4.368;2022-11-04T09:51:27;15.80;99.00
35603;DHT22;21725;50.836;4.368;2022-11-04T09:54:03;15.90;98.80
35603;DHT22;21725;50.836;4.368;2022-11-04T09:56:38;16.00;98.70
35603;DHT22;21725;50.836;4.368;2022-11-04T09:59:19;15.80;99.20
35603;DHT22;21725;50.836;4.368;2022-11-04T10:05:49;15.60;99.40
35603;DHT22;21725;50.836;4.368;2022-11-04T10:10:53;15.70;99.20
35603;DHT22;21725;50.836;4.368;2022-11-04T10:16:48;16.10;98.70
35603;DHT22;21725;50.836;4.368;2022-11-04T10:19:42;16.00;98.90
35603;DHT22;21725;50.836;4.368;2022-11-04T10:22:32;16.00;98.80
35603;DHT22;21725;50.836;4.368;2022-11-04T10:25:20;16.20;98.40
35603;DHT22;21725;50.836;4.368;2022-11-04T10:27:46;16.20;98.20
35603;DHT22;21725;50.836;4.368;2022-11-04T10:30:19;16.00;98.70
35603;DHT22;21725;50.836;4.368;2022-11-04T10:33:08;16.00;98.80
35603;DHT22;21725;50.836;4.368;2022-11-04T10:35:51;16.10;98.40
35603;DHT22;21725;50.836;4.368;2022-11-04T10:38:43;16.00;98.70
35603;DHT22;21725;50.836;4.368;2022-11-04T10:43:51;15.70;99.60
35603;DHT22;21725;50.836;4.368;2022-11-04T10:46:47;15.70;99.10
35603;DHT22;21725;50.836;4.368;2022-11-04T10:49:38;15.70;99.00
35603;DHT22;21725;50.836;4.368;2022-11-04T10:52:06;15.80;99.10
35603;DHT22;21725;50.836;4.368;2022-11-04T10:57:06;15.80;99.20
35603;DHT22;21725;50.836;4.368;2022-11-04T11:02:12;16.10;98.60
35603;DHT22;21725;50.836;4.368;2022-11-04T11:04:38;15.90;98.20
35603;DHT22;21725;50.836;4.368;2022-11-04T11:07:11;15.50;99.20
35603;DHT22;21725;50.836;4.368;2022-11-04T11:09:53;15.60;99.60
35603;DHT22;21725;50.836;4.368;2022-11-04T11:12:26;15.70;99.20
35603;DHT22;21725;50.836;4.368;2022-11-04T11:15:27;15.60;99.20
35603;DHT22;21725;50.836;4.368;2022-11-04T11:20:33;15.80;99.00
35603;DHT22;21725;50.836;4.368;2022-11-04T11:23:03;15.70;99.50
35603;DHT22;21725;50.836;4.368;2022-11-04T11:25:35;15.80;99.30
35603;DHT22;21725;50.836;4.368;2022-11-04T11:28:06;15.70;99.30
35603;DHT22;21725;50.836;4.368;2022-11-04T11:33:26;16.00;98.90
35603;DHT22;21725;50.836;4.368;2022-11-04T11:36:01;15.90;98.90
35603;DHT22;21725;50.836;4.368;2022-11-04T11:38:49;16.00;98.60
35603;DHT22;21725;50.836;4.368;2022-11-04T11:41:16;16.00;98.40
35603;DHT22;21725;50.836;4.368;2022-11-04T11:43:52;16.00;98.40
35603;DHT22;21725;50.836;4.368;2022-11-04T11:46:32;16.00;98.70
35603;DHT22;21725;50.836;4.368;2022-11-04T11:49:24;16.30;98.30
35603;DHT22;21725;50.836;4.368;2022-11-04T11:51:52;16.50;97.70
35603;DHT22;21725;50.836;4.368;2022-11-04T11:54:32;16.40;97.40
35603;DHT22;21725;50.836;4.368;2022-11-04T11:57:03;16.40;97.80
35603;DHT22;21725;50.836;4.368;2022-11-04T11:59:39;16.70;97.20
35603;DHT22;21725;50.836;4.368;2022-11-04T12:04:50;16.50;97.00
35603;DHT22;21725;50.836;4.368;2022-11-04T12:07:46;16.20;97.50
35603;DHT22;21725;50.836;4.368;2022-11-04T12:18:08;15.70;98.80
35603;DHT22;21725;50.836;4.368;2022-11-04T12:20:49;15.40;99.20
35603;DHT22;21725;50.836;4.368;2022-11-04T12:23:19;15.20;99.70
35603;DHT22;21725;50.836;4.368;2022-11-04T12:26:18;15.30;99.60
35603;DHT22;21725;50.836;4.368;2022-11-04T12:32:07;15.80;98.90
35603;DHT22;21725;50.836;4.368;2022-11-04T12:37:40;15.90;98.30
35603;DHT22;21725;50.836;4.368;2022-11-04T12:40:20;15.50;98.40
35603;DHT22;21725;50.836;4.368;2022-11-04T12:45:31;15.80;99.00
35603;DHT22;21725;50.836;4.368;2022-11-04T12:48:30;16.00;98.90
35603;DHT22;21725;50.836;4.368;2022-11-04T12:51:07;16.30;98.50
35603;DHT22;21725;50.836;4.368;2022-11-04T12:56:13;16.40;98.30
35603;DHT22;21725;50.836;4.368;2022-11-04T13:01:30;16.50;97.90
35603;DHT22;21725;50.836;4.368;2022-11-04T13:04:06;16.40;97.90
35603;DHT22;21725;50.836;4.368;2022-11-04T13:06:41;16.30;97.70
35603;DHT22;21725;50.836;4.368;2022-11-04T13:11:45;16.40;97.10
35603;DHT22;21725;50.836;4.368;2022-11-04T13:14:29;16.50;97.30
35603;DHT22;21725;50.836;4.368;2022-11-04T13:16:59;16.20;97.70
35603;DHT22;21725;50.836;4.368;2022-11-04T13:19:50;16.30;97.40
35603;DHT22;21725;50.836;4.368;2022-11-04T13:22:24;16.20;97.50
35603;DHT22;21725;50.836;4.368;2022-11-04T13:25:14;16.10;98.10
35603;DHT22;21725;50.836;4.368;2022-11-04T13:27:44;16.20;97.80
35603;DHT22;21725;50.836;4.368;2022-11-04T13:33:00;16.10;98.10
35603;DHT22;21725;50.836;4.368;2022-11-04T13:36:00;16.10;98.00
35603;DHT22;21725;50.836;4.368;2022-11-04T13:38:34;15.90;98.20
35603;DHT22;21725;50.836;4.368;2022-11-04T13:41:23;16.10;98.10
35603;DHT22;21725;50.836;4.368;2022-11-04T13:43:53;16.10;98.20
35603;DHT22;21725;50.836;4.368;2022-11-04T13:46:25;16.00;98.40
35603;DHT22;21725;50.836;4.368;2022-11-04T13:49:14;15.90;98.90
35603;DHT22;21725;50.836;4.368;2022-11-04T13:51:45;15.90;98.70
35603;DHT22;21725;50.836;4.368;2022-11-04T13:54:27;15.90;98.80
35603;DHT22;21725;50.836;4.368;2022-11-04T14:02:39;15.80;99.00
35603;DHT22;21725;50.836;4.368;2022-11-04T14:08:13;15.50;98.60
35603;DHT22;21725;50.836;4.368;2022-11-04T14:18:49;15.60;98.30
35603;DHT22;21725;50.836;4.368;2022-11-04T14:21:28;15.70;98.10
35603;DHT22;21725;50.836;4.368;2022-11-04T14:24:12;15.80;97.70
35603;DHT22;21725;50.836;4.368;2022-11-04T14:26:43;15.70;98.10
35603;DHT22;21725;50.836;4.368;2022-11-04T14:29:22;15.70;98.20
35603;DHT22;21725;50.836;4.368;2022-11-04T14:31:53;15.70;98.40
35603;DHT22;21725;50.836;4.368;2022-11-04T14:34:36;15.60;96.90
35603;DHT22;21725;50.836;4.368;2022-11-04T14:37:23;15.30;97.10
35603;DHT22;21725;50.836;4.368;2022-11-04T14:39:55;14.80;98.00
35603;DHT22;21725;50.836;4.368;2022-11-04T14:42:49;14.30;98.70
35603;DHT22;21725;50.836;4.368;2022-11-04T14:45:30;14.00;98.90
35603;DHT22;21725;50.836;4.368;2022-11-04T14:48:14;13.80;99.30
35603;DHT22;21725;50.836;4.368;2022-11-04T14:50:45;13.80;99.20
35603;DHT22;21725;50.836;4.368;2022-11-04T14:56:15;14.00;98.30
35603;DHT22;21725;50.836;4.368;2022-11-04T14:58:54;13.90;99.60
35603;DHT22;21725;50.836;4.368;2022-11-04T15:01:20;14.10;99.20
35603;DHT22;21725;50.836;4.368;2022-11-04T15:03:56;14.30;98.80
35603;DHT22;21725;50.836;4.368;2022-11-04T15:06:28;14.40;98.70
35603;DHT22;21725;50.836;4.368;2022-11-04T15:08:55;14.70;97.90
35603;DHT22;21725;50.836;4.368;2022-11-04T15:11:26;15.00;97.30
35603;DHT22;21725;50.836;4.368;2022-11-04T15:14:22;15.00;96.80
35603;DHT22;21725;50.836;4.368;2022-11-04T15:16:50;14.90;96.10
35603;DHT22;21725;50.836;4.368;2022-11-04T15:19:32;14.70;96.80
35603;DHT22;21725;50.836;4.368;2022-11-04T15:22:05;14.60;97.10
35603;DHT22;21725;50.836;4.368;2022-11-04T15:24:34;14.60;97.70
35603;DHT22;21725;50.836;4.368;2022-11-04T15:27:05;14.70;97.60
35603;DHT22;21725;50.836;4.368;2022-11-04T15:29:31;14.70;97.30
35603;DHT22;21725;50.836;4.368;2022-11-04T15:32:01;14.90;96.60
35603;DHT22;21725;50.836;4.368;2022-11-04T15:34:28;14.70;97.40
35603;DHT22;21725;50.836;4.368;2022-11-04T15:36:59;14.70;96.90
35603;DHT22;21725;50.836;4.368;2022-11-04T15:42:01;14.40;97.50
35603;DHT22;21725;50.836;4.368;2022-11-04T15:44:50;14.30;97.60
35603;DHT22;21725;50.836;4.368;2022-11-04T15:49:49;14.60;97.60
35603;DHT22;21725;50.836;4.368;2022-11-04T15:52:18;14.40;97.80
35603;DHT22;21725;50.836;4.368;2022-11-04T15:54:55;14.20;98.50
35603;DHT22;21725;50.836;4.368;2022-11-04T15:57:30;14.30;98.60
35603;DHT22;21725;50.836;4.368;2022-11-04T16:02:53;14.30;98.40
35603;DHT22;21725;50.836;4.368;2022-11-04T16:05:24;14.40;98.30
35603;DHT22;21725;50.836;4.368;2022-11-04T16:07:52;14.40;98.50
35603;DHT22;21725;50.836;4.368;2022-11-04T16:10:29;14.40;98.90
35603;DHT22;21725;50.836;4.368;2022-11-04T16:12:58;14.10;99.20
35603;DHT22;21725;50.836;4.368;2022-11-04T16:18:36;14.40;99.30
35603;DHT22;21725;50.836;4.368;2022-11-04T16:21:24;14.40;99.20
35603;DHT22;21725;50.836;4.368;2022-11-04T16:24:06;14.40;98.50
35603;DHT22;21725;50.836;4.368;2022-11-04T16:26:38;14.30;98.60
35603;DHT22;21725;50.836;4.368;2022-11-04T16:29:13;14.20;98.70
35603;DHT22;21725;50.836;4.368;2022-11-04T16:31:44;14.20;98.80
35603;DHT22;21725;50.836;4.368;2022-11-04T16:34:13;14.60;98.60
35603;DHT22;21725;50.836;4.368;2022-11-04T16:36:40;14.00;99.00
35603;DHT22;21725;50.836;4.368;2022-11-04T16:39:07;14.10;99.40
35603;DHT22;21725;50.836;4.368;2022-11-04T16:41:37;14.10;99.20
35603;DHT22;21725;50.836;4.368;2022-11-04T16:44:04;14.30;98.90
35603;DHT22;21725;50.836;4.368;2022-11-04T16:46:35;14.40;98.50
35603;DHT22;21725;50.836;4.368;2022-11-04T16:49:14;14.30;99.00
35603;DHT22;21725;50.836;4.368;2022-11-04T16:51:40;14.40;99.00
35603;DHT22;21725;50.836;4.368;2022-11-04T16:54:06;14.40;99.00
35603;DHT22;21725;50.836;4.368;2022-11-04T16:56:41;14.50;99.10
35603;DHT22;21725;50.836;4.368;2022-11-04T16:59:17;14.60;98.60
35603;DHT22;21725;50.836;4.368;2022-11-04T17:01:42;14.60;98.60
35603;DHT22;21725;50.836;4.368;2022-11-04T17:04:11;14.50;98.70
35603;DHT22;21725;50.836;4.368;2022-11-04T17:06:46;14.50;98.50
35603;DHT22;21725;50.836;4.368;2022-11-04T17:09:20;14.50;98.80
35603;DHT22;21725;50.836;4.368;2022-11-04T17:11:47;14.60;98.70
35603;DHT22;21725;50.836;4.368;2022-11-04T17:14:13;14.50;98.40
35603;DHT22;21725;50.836;4.368;2022-11-04T17:16:43;14.40;98.70
35603;DHT22;21725;50.836;4.368;2022-11-04T17:19:15;14.60;98.90
35603;DHT22;21725;50.836;4.368;2022-11-04T17:21:44;14.50;98.40
35603;DHT22;21725;50.836;4.368;2022-11-04T17:24:12;14.40;98.90
35603;DHT22;21725;50.836;4.368;2022-11-04T17:26:41;14.40;99.10
35603;DHT22;21725;50.836;4.368;2022-11-04T17:29:06;14.30;99.10
35603;DHT22;21725;50.836;4.368;2022-11-04T17:31:35;14.70;99.70
35603;DHT22;21725;50.836;4.368;2022-11-04T17:34:01;14.20;99.30
35603;DHT22;21725;50.836;4.368;2022-11-04T17:36:27;14.30;99.20
35603;DHT22;21725;50.836;4.368;2022-11-04T17:38:54;14.20;99.30
35603;DHT22;21725;50.836;4.368;2022-11-04T17:41:20;14.10;99.60
35603;DHT22;21725;50.836;4.368;2022-11-04T17:44:04;14.20;99.50
35603;DHT22;21725;50.836;4.368;2022-11-04T17:46:31;14.10;99.50
35603;DHT22;21725;50.836;4.368;2022-11-04T17:49:05;13.90;99.80
35603;DHT22;21725;50.836;4.368;2022-11-04T17:51:35;14.00;99.90
35603;DHT22;21725;50.836;4.368;2022-11-04T17:54:01;14.10;99.90
35603;DHT22;21725;50.836;4.368;2022-11-04T17:56:27;14.00;99.90
35603;DHT22;21725;50.836;4.368;2022-11-04T17:58:53;14.00;99.60
35603;DHT22;21725;50.836;4.368;2022-11-04T18:01:22;14.10;99.90